sensor_id;sensor_type;location;lat;lon;timestamp;P1;durP1;ratioP1;P2;durP2;ratioP2
1402;SDS011;696;48.546;9.896;2023-07-02T00:00:29;1.33;;;0.80;;
1402;SDS011;696;48.546;9.896;2023-07-02T00:02:55;1.63;;;1.20;;
1402;SDS011;696;48.546;9.896;2023-07-02T00:05:20;1.00;;;0.90;;
1402;SDS011;696;48.546;9.896;2023-07-02T00:07:46;1.05;;;0.95;;
1402;SDS011;696;48.546;9.896;2023-07-02T00:10:11;1.35;;;1.00;;
1402;SDS011;696;48.546;9.896;2023-07-02T00:12:36;1.15;;;0.93;;
1402;SDS011;696;48.546;9.896;2023-07-02T00:15:02;1.42;;;0.95;;
1402;SDS011;696;48.546;9.896;2023-07-02T00:17:28;2.70;;;1.63;;
1402;SDS011;696;48.546;9.896;2023-07-02T00:19:54;1.80;;;1.33;;
1402;SDS011;696;48.546;9.896;2023-07-02T00:22:19;1.88;;;1.23;;
1402;SDS011;696;48.546;9.896;2023-07-02T00:24:45;2.35;;;1.45;;
1402;SDS011;696;48.546;9.896;2023-07-02T00:27:11;2.50;;;1.42;;
1402;SDS011;696;48.546;9.896;2023-07-02T00:29:36;3.08;;;1.90;;
1402;SDS011;696;48.546;9.896;2023-07-02T00:32:01;3.10;;;1.90;;
1402;SDS011;696;48.546;9.896;2023-07-02T00:34:27;8.45;;;2.05;;
1402;SDS011;696;48.546;9.896;2023-07-02T00:36:53;4.65;;;1.80;;
1402;SDS011;696;48.546;9.896;2023-07-02T00:39:18;3.70;;;1.85;;
1402;SDS011;696;48.546;9.896;2023-07-02T00:41:44;3.47;;;1.77;;
1402;SDS011;696;48.546;9.896;2023-07-02T00:44:11;2.53;;;1.80;;
1402;SDS011;696;48.546;9.896;2023-07-02T00:46:37;1.83;;;1.63;;
1402;SDS011;696;48.546;9.896;2023-07-02T00:49:04;2.55;;;1.75;;
1402;SDS011;696;48.546;9.896;2023-07-02T00:51:30;2.90;;;1.63;;
1402;SDS011;696;48.546;9.896;2023-07-02T00:53:56;2.35;;;1.88;;
1402;SDS011;696;48.546;9.896;2023-07-02T00:56:23;3.97;;;1.95;;
1402;SDS011;696;48.546;9.896;2023-07-02T00:58:50;2.72;;;2.05;;
1402;SDS011;696;48.546;9.896;2023-07-02T01:01:18;2.80;;;2.22;;
1402;SDS011;696;48.546;9.896;2023-07-02T01:03:51;2.35;;;1.83;;
1402;SDS011;696;48.546;9.896;2023-07-02T01:06:36;3.67;;;1.95;;
1402;SDS011;696;48.546;9.896;2023-07-02T01:09:05;5.82;;;2.20;;
1402;SDS011;696;48.546;9.896;2023-07-02T01:14:02;3.10;;;2.20;;
1402;SDS011;696;48.546;9.896;2023-07-02T01:16:30;2.78;;;2.00;;
1402;SDS011;696;48.546;9.896;2023-07-02T01:18:58;3.60;;;2.17;;
1402;SDS011;696;48.546;9.896;2023-07-02T01:21:24;2.17;;;1.63;;
1402;SDS011;696;48.546;9.896;2023-07-02T01:23:50;3.47;;;1.90;;
1402;SDS011;696;48.546;9.896;2023-07-02T01:26:15;3.22;;;1.67;;
1402;SDS011;696;48.546;9.896;2023-07-02T01:28:41;2.92;;;1.98;;
1402;SDS011;696;48.546;9.896;2023-07-02T01:31:06;5.43;;;2.08;;
1402;SDS011;696;48.546;9.896;2023-07-02T01:33:32;8.43;;;2.13;;
1402;SDS011;696;48.546;9.896;2023-07-02T01:35:57;1.92;;;1.70;;
1402;SDS011;696;48.546;9.896;2023-07-02T01:38:23;4.18;;;2.15;;
1402;SDS011;696;48.546;9.896;2023-07-02T01:40:48;3.40;;;1.90;;
1402;SDS011;696;48.546;9.896;2023-07-02T01:43:13;1.85;;;1.65;;
1402;SDS011;696;48.546;9.896;2023-07-02T01:45:40;3.00;;;1.88;;
1402;SDS011;696;48.546;9.896;2023-07-02T01:48:06;3.30;;;1.88;;
1402;SDS011;696;48.546;9.896;2023-07-02T01:50:31;4.05;;;2.28;;
1402;SDS011;696;48.546;9.896;2023-07-02T01:52:57;3.60;;;2.10;;
1402;SDS011;696;48.546;9.896;2023-07-02T01:55:22;3.15;;;1.70;;
1402;SDS011;696;48.546;9.896;2023-07-02T01:57:47;2.63;;;1.92;;
1402;SDS011;696;48.546;9.896;2023-07-02T02:00:13;4.57;;;1.85;;
1402;SDS011;696;48.546;9.896;2023-07-02T02:02:38;2.08;;;1.60;;
1402;SDS011;696;48.546;9.896;2023-07-02T02:05:04;2.85;;;1.80;;
1402;SDS011;696;48.546;9.896;2023-07-02T02:07:29;4.50;;;1.73;;
1402;SDS011;696;48.546;9.896;2023-07-02T02:09:55;4.80;;;1.90;;
1402;SDS011;696;48.546;9.896;2023-07-02T02:12:20;2.20;;;1.85;;
1402;SDS011;696;48.546;9.896;2023-07-02T02:14:45;5.78;;;2.10;;
1402;SDS011;696;48.546;9.896;2023-07-02T02:17:11;3.05;;;2.00;;
1402;SDS011;696;48.546;9.896;2023-07-02T02:19:36;2.08;;;1.55;;
1402;SDS011;696;48.546;9.896;2023-07-02T02:22:01;2.55;;;1.70;;
1402;SDS011;696;48.546;9.896;2023-07-02T02:24:27;3.63;;;1.90;;
1402;SDS011;696;48.546;9.896;2023-07-02T02:26:53;2.60;;;1.67;;
1402;SDS011;696;48.546;9.896;2023-07-02T02:29:18;2.58;;;1.77;;
1402;SDS011;696;48.546;9.896;2023-07-02T02:31:43;3.20;;;1.95;;
1402;SDS011;696;48.546;9.896;2023-07-02T02:34:09;2.13;;;1.77;;
1402;SDS011;696;48.546;9.896;2023-07-02T02:36:34;4.40;;;2.03;;
1402;SDS011;696;48.546;9.896;2023-07-02T02:39:00;3.15;;;1.98;;
1402;SDS011;696;48.546;9.896;2023-07-02T02:41:25;2.42;;;1.70;;
1402;SDS011;696;48.546;9.896;2023-07-02T02:43:51;3.65;;;1.77;;
1402;SDS011;696;48.546;9.896;2023-07-02T02:46:19;3.63;;;1.95;;
1402;SDS011;696;48.546;9.896;2023-07-02T02:48:46;3.38;;;1.92;;
1402;SDS011;696;48.546;9.896;2023-07-02T02:51:12;6.63;;;2.20;;
1402;SDS011;696;48.546;9.896;2023-07-02T02:53:37;5.15;;;2.13;;
1402;SDS011;696;48.546;9.896;2023-07-02T02:56:03;3.03;;;1.88;;
1402;SDS011;696;48.546;9.896;2023-07-02T02:58:28;2.83;;;1.95;;
1402;SDS011;696;48.546;9.896;2023-07-02T03:00:54;2.55;;;1.77;;
1402;SDS011;696;48.546;9.896;2023-07-02T03:03:19;5.80;;;2.08;;
1402;SDS011;696;48.546;9.896;2023-07-02T03:05:45;2.72;;;1.58;;
1402;SDS011;696;48.546;9.896;2023-07-02T03:08:13;5.72;;;1.63;;
1402;SDS011;696;48.546;9.896;2023-07-02T03:10:38;3.47;;;1.60;;
1402;SDS011;696;48.546;9.896;2023-07-02T03:13:04;3.08;;;1.70;;
1402;SDS011;696;48.546;9.896;2023-07-02T03:15:29;2.92;;;1.95;;
1402;SDS011;696;48.546;9.896;2023-07-02T03:17:55;2.20;;;1.42;;
1402;SDS011;696;48.546;9.896;2023-07-02T03:20:21;5.00;;;2.00;;
1402;SDS011;696;48.546;9.896;2023-07-02T03:22:46;2.35;;;1.85;;
1402;SDS011;696;48.546;9.896;2023-07-02T03:25:12;3.83;;;2.28;;
1402;SDS011;696;48.546;9.896;2023-07-02T03:27:37;4.05;;;1.70;;
1402;SDS011;696;48.546;9.896;2023-07-02T03:30:03;3.33;;;2.17;;
1402;SDS011;696;48.546;9.896;2023-07-02T03:32:29;2.60;;;1.83;;
1402;SDS011;696;48.546;9.896;2023-07-02T03:34:54;3.20;;;1.85;;
1402;SDS011;696;48.546;9.896;2023-07-02T03:37:19;3.30;;;2.10;;
1402;SDS011;696;48.546;9.896;2023-07-02T03:39:45;3.00;;;2.00;;
1402;SDS011;696;48.546;9.896;2023-07-02T03:42:10;7.60;;;2.15;;
1402;SDS011;696;48.546;9.896;2023-07-02T03:44:35;3.20;;;1.90;;
1402;SDS011;696;48.546;9.896;2023-07-02T03:47:01;4.97;;;1.92;;
1402;SDS011;696;48.546;9.896;2023-07-02T03:49:26;3.42;;;1.83;;
1402;SDS011;696;48.546;9.896;2023-07-02T03:51:51;2.78;;;2.10;;
1402;SDS011;696;48.546;9.896;2023-07-02T03:54:17;2.08;;;1.67;;
1402;SDS011;696;48.546;9.896;2023-07-02T03:56:43;4.85;;;2.30;;
1402;SDS011;696;48.546;9.896;2023-07-02T03:59:08;1.80;;;1.70;;
1402;SDS011;696;48.546;9.896;2023-07-02T04:01:33;2.70;;;1.98;;
1402;SDS011;696;48.546;9.896;2023-07-02T04:03:59;7.15;;;2.38;;
1402;SDS011;696;48.546;9.896;2023-07-02T04:06:24;4.63;;;2.30;;
1402;SDS011;696;48.546;9.896;2023-07-02T04:08:50;3.83;;;2.00;;
1402;SDS011;696;48.546;9.896;2023-07-02T04:11:15;3.33;;;1.80;;
1402;SDS011;696;48.546;9.896;2023-07-02T04:13:40;2.45;;;1.70;;
1402;SDS011;696;48.546;9.896;2023-07-02T04:16:06;3.80;;;1.65;;
1402;SDS011;696;48.546;9.896;2023-07-02T04:18:32;5.65;;;2.10;;
1402;SDS011;696;48.546;9.896;2023-07-02T04:20:58;1.77;;;1.63;;
1402;SDS011;696;48.546;9.896;2023-07-02T04:23:24;3.92;;;2.40;;
1402;SDS011;696;48.546;9.896;2023-07-02T04:25:49;3.75;;;1.80;;
1402;SDS011;696;48.546;9.896;2023-07-02T04:28:15;3.20;;;1.77;;
1402;SDS011;696;48.546;9.896;2023-07-02T04:30:40;6.80;;;1.85;;
1402;SDS011;696;48.546;9.896;2023-07-02T04:33:07;4.10;;;2.10;;
1402;SDS011;696;48.546;9.896;2023-07-02T04:35:32;2.83;;;1.88;;
1402;SDS011;696;48.546;9.896;2023-07-02T04:37:59;3.40;;;2.20;;
1402;SDS011;696;48.546;9.896;2023-07-02T04:40:25;3.67;;;2.00;;
1402;SDS011;696;48.546;9.896;2023-07-02T04:42:50;3.38;;;2.42;;
1402;SDS011;696;48.546;9.896;2023-07-02T04:45:22;3.70;;;2.28;;
1402;SDS011;696;48.546;9.896;2023-07-02T04:47:48;3.20;;;2.05;;
1402;SDS011;696;48.546;9.896;2023-07-02T04:50:13;4.60;;;2.00;;
1402;SDS011;696;48.546;9.896;2023-07-02T04:52:39;2.38;;;1.65;;
1402;SDS011;696;48.546;9.896;2023-07-02T04:55:04;3.08;;;2.08;;
1402;SDS011;696;48.546;9.896;2023-07-02T04:57:30;2.78;;;2.17;;
1402;SDS011;696;48.546;9.896;2023-07-02T04:59:56;7.53;;;2.08;;
1402;SDS011;696;48.546;9.896;2023-07-02T05:02:22;7.15;;;2.30;;
1402;SDS011;696;48.546;9.896;2023-07-02T05:04:47;1.88;;;1.65;;
1402;SDS011;696;48.546;9.896;2023-07-02T05:07:12;5.97;;;2.25;;
1402;SDS011;696;48.546;9.896;2023-07-02T05:09:38;5.80;;;2.30;;
1402;SDS011;696;48.546;9.896;2023-07-02T05:12:03;2.92;;;1.92;;
1402;SDS011;696;48.546;9.896;2023-07-02T05:14:29;3.40;;;2.03;;
1402;SDS011;696;48.546;9.896;2023-07-02T05:16:54;2.50;;;1.80;;
1402;SDS011;696;48.546;9.896;2023-07-02T05:19:19;2.63;;;1.52;;
1402;SDS011;696;48.546;9.896;2023-07-02T05:21:45;2.20;;;1.60;;
1402;SDS011;696;48.546;9.896;2023-07-02T05:24:10;2.50;;;1.38;;
1402;SDS011;696;48.546;9.896;2023-07-02T05:26:35;3.47;;;1.10;;
1402;SDS011;696;48.546;9.896;2023-07-02T05:29:01;1.23;;;1.13;;
1402;SDS011;696;48.546;9.896;2023-07-02T05:31:27;2.85;;;1.15;;
1402;SDS011;696;48.546;9.896;2023-07-02T05:33:53;2.65;;;1.25;;
1402;SDS011;696;48.546;9.896;2023-07-02T05:36:18;4.22;;;1.40;;
1402;SDS011;696;48.546;9.896;2023-07-02T05:38:44;2.72;;;1.60;;
1402;SDS011;696;48.546;9.896;2023-07-02T05:41:09;2.47;;;1.35;;
1402;SDS011;696;48.546;9.896;2023-07-02T05:43:35;1.25;;;1.00;;
1402;SDS011;696;48.546;9.896;2023-07-02T05:46:00;8.15;;;1.10;;
1402;SDS011;696;48.546;9.896;2023-07-02T05:48:26;1.08;;;0.93;;
1402;SDS011;696;48.546;9.896;2023-07-02T05:50:52;0.60;;;0.60;;
1402;SDS011;696;48.546;9.896;2023-07-02T05:53:17;1.30;;;1.00;;
1402;SDS011;696;48.546;9.896;2023-07-02T05:55:43;1.15;;;1.00;;
1402;SDS011;696;48.546;9.896;2023-07-02T05:58:08;0.95;;;0.85;;
1402;SDS011;696;48.546;9.896;2023-07-02T06:00:34;0.98;;;0.90;;
1402;SDS011;696;48.546;9.896;2023-07-02T06:02:59;2.10;;;1.45;;
1402;SDS011;696;48.546;9.896;2023-07-02T06:05:25;5.00;;;1.90;;
1402;SDS011;696;48.546;9.896;2023-07-02T06:07:50;10.95;;;2.42;;
1402;SDS011;696;48.546;9.896;2023-07-02T06:10:15;6.22;;;3.15;;
1402;SDS011;696;48.546;9.896;2023-07-02T06:12:42;5.38;;;2.95;;
1402;SDS011;696;48.546;9.896;2023-07-02T06:15:08;6.70;;;4.10;;
1402;SDS011;696;48.546;9.896;2023-07-02T06:17:34;10.68;;;4.45;;
1402;SDS011;696;48.546;9.896;2023-07-02T06:19:59;11.35;;;5.07;;
1402;SDS011;696;48.546;9.896;2023-07-02T06:22:24;17.25;;;5.40;;
1402;SDS011;696;48.546;9.896;2023-07-02T06:24:50;9.38;;;5.28;;
1402;SDS011;696;48.546;9.896;2023-07-02T06:27:15;14.65;;;5.63;;
1402;SDS011;696;48.546;9.896;2023-07-02T06:29:40;18.30;;;6.70;;
1402;SDS011;696;48.546;9.896;2023-07-02T06:32:06;14.02;;;6.15;;
1402;SDS011;696;48.546;9.896;2023-07-02T06:34:31;14.85;;;6.03;;
1402;SDS011;696;48.546;9.896;2023-07-02T06:36:57;28.77;;;6.55;;
1402;SDS011;696;48.546;9.896;2023-07-02T06:39:22;12.25;;;6.05;;
1402;SDS011;696;48.546;9.896;2023-07-02T06:41:47;16.60;;;6.40;;
1402;SDS011;696;48.546;9.896;2023-07-02T06:44:13;11.50;;;5.60;;
1402;SDS011;696;48.546;9.896;2023-07-02T06:46:38;14.80;;;6.47;;
1402;SDS011;696;48.546;9.896;2023-07-02T06:49:03;16.65;;;6.05;;
1402;SDS011;696;48.546;9.896;2023-07-02T06:51:29;13.75;;;6.45;;
1402;SDS011;696;48.546;9.896;2023-07-02T06:53:54;12.13;;;5.97;;
1402;SDS011;696;48.546;9.896;2023-07-02T06:56:20;13.38;;;6.43;;
1402;SDS011;696;48.546;9.896;2023-07-02T06:58:45;10.18;;;5.78;;
1402;SDS011;696;48.546;9.896;2023-07-02T07:01:11;12.93;;;5.70;;
1402;SDS011;696;48.546;9.896;2023-07-02T07:03:36;9.10;;;6.30;;
1402;SDS011;696;48.546;9.896;2023-07-02T07:06:02;15.80;;;6.53;;
1402;SDS011;696;48.546;9.896;2023-07-02T07:08:27;20.90;;;7.28;;
1402;SDS011;696;48.546;9.896;2023-07-02T07:10:53;14.43;;;7.20;;
1402;SDS011;696;48.546;9.896;2023-07-02T07:13:18;17.92;;;7.53;;
1402;SDS011;696;48.546;9.896;2023-07-02T07:15:44;15.38;;;7.35;;
1402;SDS011;696;48.546;9.896;2023-07-02T07:18:09;13.65;;;7.15;;
1402;SDS011;696;48.546;9.896;2023-07-02T07:20:35;15.93;;;7.88;;
1402;SDS011;696;48.546;9.896;2023-07-02T07:23:01;15.13;;;7.57;;
1402;SDS011;696;48.546;9.896;2023-07-02T07:25:27;12.23;;;7.32;;
1402;SDS011;696;48.546;9.896;2023-07-02T07:27:53;12.18;;;7.18;;
1402;SDS011;696;48.546;9.896;2023-07-02T07:30:18;15.30;;;7.93;;
1402;SDS011;696;48.546;9.896;2023-07-02T07:32:48;15.38;;;7.70;;
1402;SDS011;696;48.546;9.896;2023-07-02T07:35:17;18.00;;;7.40;;
1402;SDS011;696;48.546;9.896;2023-07-02T07:37:43;17.52;;;7.32;;
1402;SDS011;696;48.546;9.896;2023-07-02T07:40:08;12.98;;;7.43;;
1402;SDS011;696;48.546;9.896;2023-07-02T07:42:34;15.30;;;6.88;;
1402;SDS011;696;48.546;9.896;2023-07-02T07:44:59;10.40;;;6.50;;
1402;SDS011;696;48.546;9.896;2023-07-02T07:47:25;13.38;;;6.25;;
1402;SDS011;696;48.546;9.896;2023-07-02T07:49:50;14.93;;;6.47;;
1402;SDS011;696;48.546;9.896;2023-07-02T07:52:15;14.70;;;5.97;;
1402;SDS011;696;48.546;9.896;2023-07-02T07:54:41;14.43;;;7.22;;
1402;SDS011;696;48.546;9.896;2023-07-02T07:57:06;12.23;;;5.97;;
1402;SDS011;696;48.546;9.896;2023-07-02T07:59:32;9.15;;;5.53;;
1402;SDS011;696;48.546;9.896;2023-07-02T08:01:57;13.57;;;6.40;;
1402;SDS011;696;48.546;9.896;2023-07-02T08:04:22;10.77;;;6.38;;
1402;SDS011;696;48.546;9.896;2023-07-02T08:06:48;10.93;;;5.55;;
1402;SDS011;696;48.546;9.896;2023-07-02T08:09:13;14.25;;;6.85;;
1402;SDS011;696;48.546;9.896;2023-07-02T08:11:38;10.15;;;5.40;;
1402;SDS011;696;48.546;9.896;2023-07-02T08:14:04;12.05;;;5.85;;
1402;SDS011;696;48.546;9.896;2023-07-02T08:16:29;12.05;;;6.10;;
1402;SDS011;696;48.546;9.896;2023-07-02T08:18:54;8.52;;;5.65;;
1402;SDS011;696;48.546;9.896;2023-07-02T08:21:20;9.43;;;5.10;;
1402;SDS011;696;48.546;9.896;2023-07-02T08:23:45;9.63;;;5.38;;
1402;SDS011;696;48.546;9.896;2023-07-02T08:26:10;15.18;;;5.57;;
1402;SDS011;696;48.546;9.896;2023-07-02T08:28:36;8.68;;;5.40;;
1402;SDS011;696;48.546;9.896;2023-07-02T08:31:03;13.23;;;6.15;;
1402;SDS011;696;48.546;9.896;2023-07-02T08:33:29;12.98;;;6.20;;
1402;SDS011;696;48.546;9.896;2023-07-02T08:35:54;10.63;;;5.78;;
1402;SDS011;696;48.546;9.896;2023-07-02T08:38:20;12.00;;;6.03;;
1402;SDS011;696;48.546;9.896;2023-07-02T08:40:45;11.43;;;5.35;;
1402;SDS011;696;48.546;9.896;2023-07-02T08:43:10;12.02;;;6.20;;
1402;SDS011;696;48.546;9.896;2023-07-02T08:45:36;13.23;;;5.63;;
1402;SDS011;696;48.546;9.896;2023-07-02T08:48:01;10.55;;;5.55;;
1402;SDS011;696;48.546;9.896;2023-07-02T08:50:27;10.30;;;6.22;;
1402;SDS011;696;48.546;9.896;2023-07-02T08:52:53;11.15;;;5.90;;
1402;SDS011;696;48.546;9.896;2023-07-02T08:55:19;13.23;;;6.45;;
1402;SDS011;696;48.546;9.896;2023-07-02T08:57:52;12.32;;;6.25;;
1402;SDS011;696;48.546;9.896;2023-07-02T09:00:18;8.48;;;5.63;;
1402;SDS011;696;48.546;9.896;2023-07-02T09:02:44;11.15;;;6.07;;
1402;SDS011;696;48.546;9.896;2023-07-02T09:05:11;20.20;;;5.80;;
1402;SDS011;696;48.546;9.896;2023-07-02T09:07:44;12.15;;;6.03;;
1402;SDS011;696;48.546;9.896;2023-07-02T09:10:24;16.45;;;6.38;;
1402;SDS011;696;48.546;9.896;2023-07-02T09:12:51;13.48;;;6.45;;
1402;SDS011;696;48.546;9.896;2023-07-02T09:15:38;14.52;;;7.45;;
1402;SDS011;696;48.546;9.896;2023-07-02T09:18:20;12.20;;;7.00;;
1402;SDS011;696;48.546;9.896;2023-07-02T09:20:49;15.50;;;6.43;;
1402;SDS011;696;48.546;9.896;2023-07-02T09:23:15;11.93;;;6.45;;
1402;SDS011;696;48.546;9.896;2023-07-02T09:25:40;11.65;;;6.85;;
1402;SDS011;696;48.546;9.896;2023-07-02T09:28:16;10.35;;;6.55;;
1402;SDS011;696;48.546;9.896;2023-07-02T09:30:52;15.20;;;7.45;;
1402;SDS011;696;48.546;9.896;2023-07-02T09:33:19;12.30;;;6.47;;
1402;SDS011;696;48.546;9.896;2023-07-02T09:35:45;13.05;;;5.90;;
1402;SDS011;696;48.546;9.896;2023-07-02T09:38:11;9.50;;;5.82;;
1402;SDS011;696;48.546;9.896;2023-07-02T09:40:37;8.02;;;5.38;;
1402;SDS011;696;48.546;9.896;2023-07-02T09:43:10;17.83;;;6.50;;
1402;SDS011;696;48.546;9.896;2023-07-02T09:45:36;11.15;;;6.07;;
1402;SDS011;696;48.546;9.896;2023-07-02T09:48:01;19.15;;;5.93;;
1402;SDS011;696;48.546;9.896;2023-07-02T09:50:27;11.38;;;6.35;;
1402;SDS011;696;48.546;9.896;2023-07-02T09:52:53;15.15;;;7.20;;
1402;SDS011;696;48.546;9.896;2023-07-02T09:55:19;13.48;;;5.75;;
1402;SDS011;696;48.546;9.896;2023-07-02T09:57:44;14.52;;;6.60;;
1402;SDS011;696;48.546;9.896;2023-07-02T10:00:10;10.68;;;5.93;;
1402;SDS011;696;48.546;9.896;2023-07-02T10:02:36;15.27;;;6.28;;
1402;SDS011;696;48.546;9.896;2023-07-02T10:05:01;13.07;;;6.72;;
1402;SDS011;696;48.546;9.896;2023-07-02T10:07:28;13.02;;;6.63;;
1402;SDS011;696;48.546;9.896;2023-07-02T10:09:54;11.77;;;6.15;;
1402;SDS011;696;48.546;9.896;2023-07-02T10:12:20;13.32;;;6.35;;
1402;SDS011;696;48.546;9.896;2023-07-02T10:14:47;13.30;;;6.40;;
1402;SDS011;696;48.546;9.896;2023-07-02T10:17:30;13.98;;;6.45;;
1402;SDS011;696;48.546;9.896;2023-07-02T10:19:57;15.95;;;6.55;;
1402;SDS011;696;48.546;9.896;2023-07-02T10:22:27;14.68;;;6.63;;
1402;SDS011;696;48.546;9.896;2023-07-02T10:27:19;13.45;;;7.15;;
1402;SDS011;696;48.546;9.896;2023-07-02T10:29:51;11.85;;;6.97;;
1402;SDS011;696;48.546;9.896;2023-07-02T10:32:25;16.13;;;6.80;;
1402;SDS011;696;48.546;9.896;2023-07-02T10:34:52;15.85;;;7.85;;
1402;SDS011;696;48.546;9.896;2023-07-02T10:37:18;16.95;;;6.90;;
1402;SDS011;696;48.546;9.896;2023-07-02T10:39:43;13.93;;;7.45;;
1402;SDS011;696;48.546;9.896;2023-07-02T10:42:09;12.48;;;8.00;;
1402;SDS011;696;48.546;9.896;2023-07-02T10:44:45;15.02;;;8.10;;
1402;SDS011;696;48.546;9.896;2023-07-02T10:47:12;21.85;;;8.98;;
1402;SDS011;696;48.546;9.896;2023-07-02T10:49:37;14.88;;;7.93;;
1402;SDS011;696;48.546;9.896;2023-07-02T10:52:02;18.67;;;9.13;;
1402;SDS011;696;48.546;9.896;2023-07-02T10:54:42;15.25;;;9.38;;
1402;SDS011;696;48.546;9.896;2023-07-02T10:57:09;16.23;;;9.35;;
1402;SDS011;696;48.546;9.896;2023-07-02T10:59:34;18.92;;;10.27;;
1402;SDS011;696;48.546;9.896;2023-07-02T11:02:00;24.75;;;10.65;;
1402;SDS011;696;48.546;9.896;2023-07-02T11:04:28;20.20;;;9.63;;
1402;SDS011;696;48.546;9.896;2023-07-02T11:06:54;19.50;;;9.80;;
1402;SDS011;696;48.546;9.896;2023-07-02T11:09:20;17.52;;;10.50;;
1402;SDS011;696;48.546;9.896;2023-07-02T11:11:53;21.40;;;11.20;;
1402;SDS011;696;48.546;9.896;2023-07-02T11:14:32;19.75;;;10.60;;
1402;SDS011;696;48.546;9.896;2023-07-02T11:16:59;21.98;;;10.85;;
1402;SDS011;696;48.546;9.896;2023-07-02T11:19:28;20.80;;;10.02;;
1402;SDS011;696;48.546;9.896;2023-07-02T11:21:54;20.23;;;11.35;;
1402;SDS011;696;48.546;9.896;2023-07-02T11:24:33;21.60;;;10.65;;
1402;SDS011;696;48.546;9.896;2023-07-02T11:27:01;15.38;;;9.77;;
1402;SDS011;696;48.546;9.896;2023-07-02T11:29:30;18.70;;;9.85;;
1402;SDS011;696;48.546;9.896;2023-07-02T11:32:10;22.88;;;10.80;;
1402;SDS011;696;48.546;9.896;2023-07-02T11:34:36;24.35;;;11.75;;
1402;SDS011;696;48.546;9.896;2023-07-02T11:37:02;24.52;;;11.38;;
1402;SDS011;696;48.546;9.896;2023-07-02T11:39:29;25.92;;;12.35;;
1402;SDS011;696;48.546;9.896;2023-07-02T11:41:55;24.33;;;12.07;;
1402;SDS011;696;48.546;9.896;2023-07-02T11:44:20;18.35;;;10.77;;
1402;SDS011;696;48.546;9.896;2023-07-02T11:46:45;21.80;;;11.43;;
1402;SDS011;696;48.546;9.896;2023-07-02T11:49:12;20.05;;;10.38;;
1402;SDS011;696;48.546;9.896;2023-07-02T11:51:38;18.70;;;11.40;;
1402;SDS011;696;48.546;9.896;2023-07-02T11:54:05;27.15;;;10.98;;
1402;SDS011;696;48.546;9.896;2023-07-02T11:56:31;20.35;;;11.70;;
1402;SDS011;696;48.546;9.896;2023-07-02T11:58:56;27.08;;;11.70;;
1402;SDS011;696;48.546;9.896;2023-07-02T12:01:21;25.05;;;13.23;;
1402;SDS011;696;48.546;9.896;2023-07-02T12:03:47;24.67;;;12.80;;
1402;SDS011;696;48.546;9.896;2023-07-02T12:06:12;21.92;;;10.77;;
1402;SDS011;696;48.546;9.896;2023-07-02T12:08:37;27.95;;;13.35;;
1402;SDS011;696;48.546;9.896;2023-07-02T12:11:03;26.17;;;13.13;;
1402;SDS011;696;48.546;9.896;2023-07-02T12:13:28;26.30;;;13.23;;
1402;SDS011;696;48.546;9.896;2023-07-02T12:15:53;20.50;;;12.40;;
1402;SDS011;696;48.546;9.896;2023-07-02T12:18:19;27.20;;;12.50;;
1402;SDS011;696;48.546;9.896;2023-07-02T12:20:44;24.98;;;12.80;;
1402;SDS011;696;48.546;9.896;2023-07-02T12:23:10;25.35;;;13.02;;
1402;SDS011;696;48.546;9.896;2023-07-02T12:25:36;30.40;;;12.77;;
1402;SDS011;696;48.546;9.896;2023-07-02T12:28:02;23.63;;;13.10;;
1402;SDS011;696;48.546;9.896;2023-07-02T12:30:28;21.20;;;13.18;;
1402;SDS011;696;48.546;9.896;2023-07-02T12:32:54;23.20;;;13.73;;
1402;SDS011;696;48.546;9.896;2023-07-02T12:35:19;23.20;;;13.75;;
1402;SDS011;696;48.546;9.896;2023-07-02T12:37:50;23.08;;;13.27;;
1402;SDS011;696;48.546;9.896;2023-07-02T12:40:16;26.60;;;12.35;;
1402;SDS011;696;48.546;9.896;2023-07-02T12:42:43;25.70;;;14.25;;
1402;SDS011;696;48.546;9.896;2023-07-02T12:45:09;23.38;;;13.10;;
1402;SDS011;696;48.546;9.896;2023-07-02T12:47:36;25.50;;;12.50;;
1402;SDS011;696;48.546;9.896;2023-07-02T12:50:02;26.27;;;13.98;;
1402;SDS011;696;48.546;9.896;2023-07-02T12:52:28;28.05;;;14.20;;
1402;SDS011;696;48.546;9.896;2023-07-02T12:54:54;27.67;;;14.10;;
1402;SDS011;696;48.546;9.896;2023-07-02T12:57:19;27.75;;;14.85;;
1402;SDS011;696;48.546;9.896;2023-07-02T12:59:44;27.23;;;13.90;;
1402;SDS011;696;48.546;9.896;2023-07-02T13:02:10;28.55;;;13.30;;
1402;SDS011;696;48.546;9.896;2023-07-02T13:04:36;25.77;;;13.90;;
1402;SDS011;696;48.546;9.896;2023-07-02T13:07:01;23.27;;;13.80;;
1402;SDS011;696;48.546;9.896;2023-07-02T13:09:26;22.33;;;13.15;;
1402;SDS011;696;48.546;9.896;2023-07-02T13:11:52;27.67;;;14.18;;
1402;SDS011;696;48.546;9.896;2023-07-02T13:14:17;21.15;;;13.40;;
1402;SDS011;696;48.546;9.896;2023-07-02T13:16:43;23.65;;;13.57;;
1402;SDS011;696;48.546;9.896;2023-07-02T13:19:08;20.02;;;12.57;;
1402;SDS011;696;48.546;9.896;2023-07-02T13:21:33;25.15;;;13.55;;
1402;SDS011;696;48.546;9.896;2023-07-02T13:23:59;35.22;;;14.40;;
1402;SDS011;696;48.546;9.896;2023-07-02T13:26:24;22.75;;;13.20;;
1402;SDS011;696;48.546;9.896;2023-07-02T13:28:49;30.15;;;13.70;;
1402;SDS011;696;48.546;9.896;2023-07-02T13:31:15;22.00;;;13.13;;
1402;SDS011;696;48.546;9.896;2023-07-02T13:33:41;28.25;;;13.52;;
1402;SDS011;696;48.546;9.896;2023-07-02T13:36:07;29.85;;;13.05;;
1402;SDS011;696;48.546;9.896;2023-07-02T13:38:32;19.65;;;11.93;;
1402;SDS011;696;48.546;9.896;2023-07-02T13:40:58;23.20;;;12.07;;
1402;SDS011;696;48.546;9.896;2023-07-02T13:43:23;21.75;;;12.15;;
1402;SDS011;696;48.546;9.896;2023-07-02T13:45:49;21.52;;;11.80;;
1402;SDS011;696;48.546;9.896;2023-07-02T13:48:15;29.15;;;10.88;;
1402;SDS011;696;48.546;9.896;2023-07-02T13:50:40;20.58;;;10.35;;
1402;SDS011;696;48.546;9.896;2023-07-02T13:53:05;25.92;;;11.75;;
1402;SDS011;696;48.546;9.896;2023-07-02T13:55:31;19.58;;;10.90;;
1402;SDS011;696;48.546;9.896;2023-07-02T13:57:56;24.48;;;11.23;;
1402;SDS011;696;48.546;9.896;2023-07-02T14:00:25;20.67;;;10.52;;
1402;SDS011;696;48.546;9.896;2023-07-02T14:02:52;19.75;;;10.55;;
1402;SDS011;696;48.546;9.896;2023-07-02T14:05:17;25.50;;;10.35;;
1402;SDS011;696;48.546;9.896;2023-07-02T14:07:43;24.00;;;11.13;;
1402;SDS011;696;48.546;9.896;2023-07-02T14:10:08;19.38;;;10.38;;
1402;SDS011;696;48.546;9.896;2023-07-02T14:12:34;21.50;;;10.82;;
1402;SDS011;696;48.546;9.896;2023-07-02T14:14:59;18.73;;;10.68;;
1402;SDS011;696;48.546;9.896;2023-07-02T14:17:25;22.30;;;11.60;;
1402;SDS011;696;48.546;9.896;2023-07-02T14:19:50;22.65;;;10.68;;
1402;SDS011;696;48.546;9.896;2023-07-02T14:22:15;22.42;;;12.35;;
1402;SDS011;696;48.546;9.896;2023-07-02T14:24:41;29.83;;;13.38;;
1402;SDS011;696;48.546;9.896;2023-07-02T14:27:06;18.60;;;12.02;;
1402;SDS011;696;48.546;9.896;2023-07-02T14:29:31;22.48;;;11.20;;
1402;SDS011;696;48.546;9.896;2023-07-02T14:31:57;20.67;;;11.40;;
1402;SDS011;696;48.546;9.896;2023-07-02T14:34:22;19.98;;;11.30;;
1402;SDS011;696;48.546;9.896;2023-07-02T14:36:47;21.85;;;11.10;;
1402;SDS011;696;48.546;9.896;2023-07-02T14:39:13;18.38;;;11.00;;
1402;SDS011;696;48.546;9.896;2023-07-02T14:41:38;24.25;;;11.40;;
1402;SDS011;696;48.546;9.896;2023-07-02T14:44:04;24.65;;;11.57;;
1402;SDS011;696;48.546;9.896;2023-07-02T14:46:30;22.23;;;11.15;;
1402;SDS011;696;48.546;9.896;2023-07-02T14:48:55;21.58;;;11.02;;
1402;SDS011;696;48.546;9.896;2023-07-02T14:51:21;23.10;;;12.85;;
1402;SDS011;696;48.546;9.896;2023-07-02T14:53:46;20.83;;;11.52;;
1402;SDS011;696;48.546;9.896;2023-07-02T14:56:11;26.98;;;11.25;;
1402;SDS011;696;48.546;9.896;2023-07-02T14:58:37;19.05;;;11.05;;
1402;SDS011;696;48.546;9.896;2023-07-02T15:01:02;24.10;;;11.48;;
1402;SDS011;696;48.546;9.896;2023-07-02T15:03:28;24.30;;;12.45;;
1402;SDS011;696;48.546;9.896;2023-07-02T15:05:54;20.30;;;11.38;;
1402;SDS011;696;48.546;9.896;2023-07-02T15:08:29;26.05;;;12.60;;
1402;SDS011;696;48.546;9.896;2023-07-02T15:10:55;21.95;;;13.10;;
1402;SDS011;696;48.546;9.896;2023-07-02T15:13:20;25.90;;;12.65;;
1402;SDS011;696;48.546;9.896;2023-07-02T15:15:48;23.08;;;11.95;;